Anamur, Turkey
Current Conditions -  °F | °C
As of 6:50 PM on Sunday 21 Dec 2014 (Local Time) from LCEN Reporting Station
Scattered Clouds Scattered Clouds  
Wind Chill: 13°   Ceiling: Unl
Heat Index: 13°   Visibility: 6mi
Dew Point:   Wind: 6mph
Humidity: 67%   Direction: 280°W
Pressure: 30.09"   Gusts: NA
Location:  36.08°N, 32.84°E
Report Text: LCEN 211550Z 28005KT 9999 FEW025 SCT100 13/07 Q1019 NOSIG
Loading
Personal Weather Stations






























Interactive Weather Map New forecast layout! Learn more

10-Day Weather Forecast

Advertisements
Track Severe Weather on mobile